Latest Weather Observations for Gayndah

IDQ60801

Issued at 3:32 pm EST Monday 27 April 2015 (issued every 30 minutes, with the page automatically refreshed every 10 minutes)

About weather observations | Map of weather stations | Latest weather observations for QLD | Other Formats
Station Details ID: 039066 Name: GAYNDAH AIRPORT Lat: -25.62 Lon: 151.62 Height: 110.9 m
Data from the previous 72 hours. | See also: Recent months at Gayndah
Date/Time
EST
Temp
°C
App
Temp
°C
Dew
Point
Rel
Hum
%
Delta-T
°C
Wind Press
QNH
hPa
Press
MSL
hPa
Rain
since 9 am
mm
Dir
 
Spd
km/h
Gust
km/h
Spd
kts
Gust
kts
27/03:30pm 25.1 21.5 4.8 27 10.3 S 13 20 7 11 1015.6 1015.1 0.0
27/03:00pm 25.9 22.8 5.5 27 10.5 SW 11 19 6 10 1015.5 1015.0 0.0
27/02:30pm 25.7 22.2 5.3 27 10.4 SW 13 24 7 13 1015.5 1015.0 0.0
27/02:00pm 25.0 21.4 5.2 28 10.1 SSW 13 24 7 13 1015.7 1015.2 0.0
27/01:30pm 24.9 21.9 6.1 30 9.7 SSW 11 20 6 11 1015.9 1015.4 0.0
27/01:00pm 24.6 22.1 6.4 31 9.4 SSW 9 24 5 13 1016.2 1015.7 0.0
27/12:30pm 23.6 21.2 6.8 34 8.7 SW 9 19 5 10 1016.7 1016.2 0.0
27/12:00pm 22.7 19.7 6.0 34 8.5 SSW 11 17 6 9 1017.2 1016.7 0.0
27/11:30am 21.8 19.3 6.5 37 7.8 SW 9 19 5 10 1017.9 1017.5 0.0
27/11:00am 20.9 18.2 7.2 41 7.0 SSW 11 17 6 9 1018.5 1018.1 0.0
27/10:30am 19.6 16.4 6.7 43 6.5 SSW 13 20 7 11 1019.0 1018.6 0.0
27/10:00am 18.9 15.7 6.7 45 6.1 SSW 13 20 7 11 1019.5 1019.1 0.0
27/09:30am 18.0 14.0 6.8 48 5.6 SW 17 22 9 12 1019.5 1019.1 0.0
27/09:00am 16.7 12.4 6.8 52 4.9 SW 19 28 10 15 1019.6 1019.2 0.0
27/08:30am 15.1 12.6 6.7 57 4.1 SW 9 13 5 7 1019.6 1019.2 0.0
27/08:00am 13.0 10.0 6.1 63 3.3 WSW 11 17 6 9 1019.5 1019.1 0.0
27/07:30am 11.4 8.0 5.7 68 2.7 SW 13 19 7 10 1019.2 1018.8 0.0
27/07:00am 9.3 7.5 5.3 76 1.8 SSW 4 7 2 4 1019.0 1018.6 0.0
27/06:30am 7.5 5.8 3.9 78 1.6 SSW 2 7 1 4 1018.8 1018.4 0.0
27/06:00am 8.2 5.7 4.6 78 1.6 SSW 7 11 4 6 1018.6 1018.2 0.0
27/05:30am 6.4 4.5 2.7 77 1.5 WSW 2 4 1 2 1018.2 1017.8 0.0
27/05:00am 8.7 6.3 4.1 73 2.0 SW 6 7 3 4 1017.6 1017.2 0.0
27/04:30am 9.7 7.1 4.3 69 2.4 WSW 7 9 4 5 1017.2 1016.7 0.0
27/04:00am 10.1 7.1 4.3 67 2.6 WSW 9 11 5 6 1017.2 1016.7 0.0
27/03:30am 10.1 7.7 4.5 68 2.5 WSW 6 7 3 4 1017.3 1016.8 0.0
27/03:00am 10.1 8.1 4.3 67 2.6 SW 4 7 2 4 1017.3 1016.8 0.0
27/02:30am 11.2 7.9 4.4 63 3.1 WSW 11 17 6 9 1017.0 1016.5 0.0
27/02:00am 10.8 7.9 4.5 65 2.8 SSW 9 13 5 7 1017.1 1016.6 0.0
27/01:30am 10.7 7.8 4.6 66 2.8 SSW 9 11 5 6 1017.1 1016.6 0.0
27/01:00am 10.5 7.6 4.4 66 2.7 SW 9 11 5 6 1017.4 1016.9 0.0
27/12:30am 10.8 8.4 4.5 65 2.8 S 6 9 3 5 1017.6 1017.2 0.0
27/12:00am 10.3 8.4 4.7 68 2.5 SSW 4 6 2 3 1018.0 1017.6 0.0
 
Date/Time
EST
Temp
°C
App
Temp
°C
Dew
Point
Rel
Hum
%
Delta-T
°C
Wind Press
QNH
hPa
Press
MSL
hPa
Rain
since 9 am
mm
Dir
 
Spd
km/h
Gust
km/h
Spd
kts
Gust
kts
26/11:30pm 9.7 8.3 3.7 66 2.6 CALM 0 0 0 0 1018.0 1017.6 0.0
26/11:00pm 11.4 9.6 3.4 58 3.5 SW 2 4 1 2 1018.0 1017.6 0.0
26/10:30pm 12.6 10.2 4.1 56 3.9 WSW 6 7 3 4 1018.0 1017.6 0.0
26/10:00pm 13.2 11.0 3.6 52 4.3 SW 4 6 2 3 1018.0 1017.6 0.0
26/09:30pm 14.4 11.7 3.8 49 4.9 WSW 7 7 4 4 1017.9 1017.5 0.0
26/09:00pm 14.9 12.4 4.0 48 5.0 SW 6 6 3 3 1017.7 1017.3 0.0
26/08:30pm 15.0 12.5 3.5 46 5.3 SW 6 11 3 6 1017.5 1017.1 0.0
26/08:00pm 15.4 11.9 3.5 45 5.5 SW 11 15 6 8 1017.2 1016.7 0.0
26/07:30pm 15.8 12.6 3.3 43 5.7 SSW 9 11 5 6 1016.9 1016.4 0.0
26/07:00pm 16.9 13.3 3.2 40 6.3 SW 11 15 6 8 1016.4 1015.9 0.0
26/06:30pm 17.8 14.2 2.9 37 6.9 SSW 11 20 6 11 1015.8 1015.3 0.0
26/06:00pm 19.0 15.3 2.4 33 7.7 SW 11 15 6 8 1015.3 1014.8 0.0
26/05:30pm 20.3 16.2 2.2 30 8.4 SW 13 20 7 11 1014.7 1014.2 0.0
26/05:00pm 21.6 16.8 2.8 29 8.9 SW 17 28 9 15 1014.1 1013.7 0.0
26/04:30pm 22.5 17.1 2.6 27 9.5 SW 20 32 11 17 1013.8 1013.4 0.0
26/04:00pm 23.1 17.7 2.6 26 9.8 SW 20 30 11 16 1013.3 1012.9 0.0
26/03:30pm 23.4 18.0 2.3 25 10.1 SW 20 28 11 15 1013.2 1012.8 0.0
26/03:00pm 24.0 17.4 2.2 24 10.4 SW 26 41 14 22 1012.8 1012.4 0.0
26/02:30pm 24.4 17.8 1.9 23 10.7 SW 26 37 14 20 1012.5 1012.1 0.0
26/02:00pm 24.5 18.2 1.4 22 10.9 SW 24 37 13 20 1012.5 1012.1 0.0
26/01:30pm 24.1 17.8 1.7 23 10.6 SW 24 39 13 21 1012.6 1012.2 0.0
26/01:00pm 23.5 17.0 2.4 25 10.1 WSW 26 39 14 21 1012.8 1012.4 0.0
26/12:30pm 23.9 17.8 2.7 25 10.2 SW 24 35 13 19 1013.1 1012.7 0.0
26/12:00pm 22.8 17.1 2.8 27 9.6 WSW 22 32 12 17 1013.4 1013.0 0.0
26/11:30am 22.2 15.3 2.8 28 9.3 SW 28 43 15 23 1013.8 1013.4 0.0
26/11:00am 21.4 15.3 2.6 29 8.9 WSW 24 37 13 20 1014.4 1013.9 0.0
26/10:30am 21.6 16.5 2.8 29 8.9 SW 19 28 10 15 1014.8 1014.3 0.0
26/10:00am 20.2 14.1 3.0 32 8.1 SW 24 33 13 18 1015.1 1014.6 0.0
26/09:30am 20.1 14.6 3.8 34 7.8 SW 22 32 12 17 1015.4 1014.9 0.0
26/09:00am 19.3 13.3 3.5 35 7.5 SW 24 37 13 20 1015.4 1014.9 0.0
26/08:30am 18.9 14.3 3.9 37 7.1 WSW 17 24 9 13 1015.4 1014.9 0.0
26/08:00am 17.9 13.8 4.1 40 6.5 WSW 15 20 8 11 1015.5 1015.0 0.0
26/07:30am 15.9 14.1 5.2 49 5.1 SW 4 7 2 4 1015.2 1014.7 0.0
26/07:00am 13.7 11.8 4.8 55 4.1 SSW 4 6 2 3 1015.0 1014.5 0.0
26/06:30am 13.2 10.6 3.3 51 4.4 SW 6 7 3 4 1014.8 1014.3 0.0
26/06:00am 13.4 11.2 3.5 51 4.5 SW 4 7 2 4 1014.3 1013.8 0.0
26/05:30am 13.9 11.2 3.9 51 4.6 SW 7 11 4 6 1013.8 1013.4 0.0
26/05:00am 11.4 10.0 5.7 68 2.7 SSW 2 6 1 3 1013.4 1013.0 0.0
26/04:30am 12.1 11.3 6.4 68 2.7 CALM 0 0 0 0 1013.1 1012.7 0.0
26/04:00am 12.2 11.9 8.5 78 1.8 CALM 0 4 0 2 1012.8 1012.4 0.0
26/03:30am 13.7 12.4 7.7 67 3.0 SW 4 7 2 4 1012.6 1012.2 0.0
26/03:00am 13.8 13.3 7.8 67 3.0 CALM 0 0 0 0 1012.2 1011.8 0.0
26/02:30am 13.9 13.5 8.1 68 2.9 CALM 0 4 0 2 1012.0 1011.6 0.0
26/02:00am 14.7 14.5 8.9 68 3.0 CALM 0 2 0 1 1012.0 1011.6 0.0
26/01:30am 15.5 15.2 8.7 64 3.5 CALM 0 0 0 0 1011.6 1011.2 0.0
26/01:00am 18.2 16.7 9.3 56 4.7 W 7 9 4 5 1011.5 1011.1 0.0
26/12:30am 16.9 16.5 11.0 68 3.2 W 4 9 2 5 1011.3 1010.9 0.0
26/12:00am 15.8 15.8 12.5 81 1.8 SW 4 6 2 3 1011.1 1010.7 0.0
 
Date/Time
EST
Temp
°C
App
Temp
°C
Dew
Point
Rel
Hum
%
Delta-T
°C
Wind Press
QNH
hPa
Press
MSL
hPa
Rain
since 9 am
mm
Dir
 
Spd
km/h
Gust
km/h
Spd
kts
Gust
kts
25/11:30pm 16.5 16.6 11.4 72 2.8 SW 2 6 1 3 1011.2 1010.8 0.0
25/11:00pm 17.9 17.7 11.7 67 3.4 SSW 4 6 2 3 1011.1 1010.7 0.0
25/10:30pm 18.2 19.0 12.6 70 3.1 CALM 0 0 0 0 1011.1 1010.7 0.0
25/10:00pm 18.6 18.8 13.0 70 3.2 WSW 4 6 2 3 1011.1 1010.7 0.0
25/09:30pm 18.9 19.6 12.2 65 3.7 CALM 0 0 0 0 1011.2 1010.8 0.0
25/09:00pm 18.7 18.6 12.2 66 3.6 NE 4 9 2 5 1011.1 1010.7 0.0
25/08:30pm 20.5 20.6 11.4 56 5.0 SSE 2 6 1 3 1010.9 1010.5 0.0
25/08:00pm 20.3 20.9 11.8 58 4.8 CALM 0 0 0 0 1010.5 1010.1 0.0
25/07:30pm 20.7 21.1 11.1 54 5.3 CALM 0 0 0 0 1010.2 1009.8 0.0
25/07:00pm 21.8 22.2 11.2 51 5.9 CALM 0 2 0 1 1009.9 1009.5 0.0
25/06:30pm 23.1 22.8 11.5 48 6.5 SSW 4 6 2 3 1009.4 1008.9 0.0
25/06:00pm 23.9 24.1 10.6 43 7.4 CALM 0 0 0 0 1009.0 1008.5 0.0
25/05:30pm 26.5 25.7 9.8 35 9.3 SW 4 6 2 3 1008.8 1008.3 0.0
25/05:00pm 27.7 26.7 9.0 31 10.3 WSW 4 4 2 2 1008.6 1008.1 0.0
25/04:30pm 28.1 26.4 8.4 29 10.8 WSW 7 9 4 5 1008.3 1007.8 0.0
25/04:00pm 29.8 27.8 8.8 27 11.7 WSW 9 15 5 8 1008.2 1007.7 0.0
25/03:30pm 30.3 28.7 8.7 26 12.0 SW 7 13 4 7 1008.1 1007.6 0.0
25/03:00pm 30.1 27.1 7.9 25 12.2 SW 13 19 7 10 1008.2 1007.7 0.0
25/02:30pm 30.1 27.1 7.9 25 12.2 WSW 13 19 7 10 1008.2 1007.7 0.0
25/02:00pm 29.9 27.2 8.9 27 11.7 W 13 22 7 12 1008.3 1007.8 0.0
25/01:30pm 29.9 28.2 8.3 26 11.9 WSW 7 17 4 9 1008.5 1008.0 0.0
25/01:00pm 29.4 28.2 9.5 29 11.2 NNE 6 11 3 6 1008.7 1008.2 0.0
25/12:30pm 30.0 29.3 11.5 32 10.8 NNE 6 13 3 7 1009.3 1008.8 0.0
25/12:00pm 29.0 28.0 10.2 31 10.7 N 6 11 3 6 1009.9 1009.5 0.0
25/11:30am 28.3 26.9 10.9 34 9.9 NNW 9 19 5 10 1010.5 1010.1 0.0
25/11:00am 26.9 26.0 10.6 36 9.2 NNE 6 11 3 6 1011.1 1010.7 0.0
25/10:30am 25.7 25.6 12.2 43 7.8 NNW 4 11 2 6 1011.5 1011.1 0.0
25/10:00am 23.7 22.8 10.7 44 7.2 WSW 6 9 3 5 1012.0 1011.6 0.0
25/09:30am 22.8 22.7 12.1 51 6.1 W 4 7 2 4 1012.2 1011.8 0.0
25/09:00am 20.5 19.9 11.7 57 4.9 W 6 7 3 4 1012.4 1012.0 0.0
25/08:30am 18.5 18.7 12.0 66 3.6 W 2 6 1 3 1012.5 1012.1 0.0
25/08:00am 16.3 16.9 11.9 75 2.4 CALM 0 4 0 2 1012.4 1012.0 0.0
25/07:30am 14.4 14.7 11.0 80 1.8 CALM 0 0 0 0 1012.2 1011.8 0.0
25/07:00am 12.5 12.9 11.1 91 0.7 CALM 0 0 0 0 1012.0 1011.6 0.0
25/06:30am 10.7 10.6 9.6 93 0.6 CALM 0 0 0 0 1011.6 1011.2 0.0
25/06:00am 10.7 10.6 9.5 92 0.6 CALM 0 0 0 0 1011.4 1011.0 0.0
25/05:30am 11.0 11.1 10.2 95 0.4 CALM 0 2 0 1 1011.2 1010.8 0.0
25/05:00am 10.7 9.6 9.9 95 0.4 SSW 6 6 3 3 1011.0 1010.6 0.0
25/04:30am 10.8 10.1 9.9 94 0.5 SW 4 4 2 2 1010.7 1010.3 0.0
25/04:00am 11.2 10.5 10.1 93 0.6 SSW 4 6 2 3 1010.4 1010.0 0.0
25/03:30am 11.5 11.5 9.9 90 0.8 CALM 0 0 0 0 1010.5 1010.1 0.0
25/03:00am 11.8 11.8 9.9 88 1.0 CALM 0 0 0 0 1010.5 1010.1 0.0
25/02:30am 13.0 12.4 10.5 85 1.3 SSE 4 4 2 2 1010.4 1010.0 0.0
25/02:00am 12.7 12.7 11.3 91 0.7 S 2 4 1 2 1010.5 1010.1 0.0
25/01:30am 12.6 12.4 10.5 87 1.1 SW 2 4 1 2 1010.7 1010.3 0.0
25/01:00am 13.5 13.6 11.6 88 1.0 WSW 2 4 1 2 1010.8 1010.4 0.0
25/12:30am 13.7 14.2 11.6 87 1.1 CALM 0 2 0 1 1010.7 1010.3 0.0
25/12:00am 14.2 13.9 11.5 84 1.5 S 4 6 2 3 1010.8 1010.4 0.0
 
Date/Time
EST
Temp
°C
App
Temp
°C
Dew
Point
Rel
Hum
%
Delta-T
°C
Wind Press
QNH
hPa
Press
MSL
hPa
Rain
since 9 am
mm
Dir
 
Spd
km/h
Gust
km/h
Spd
kts
Gust
kts
24/11:30pm 13.9 14.3 11.2 84 1.4 CALM 0 0 0 0 1010.9 1010.5 0.0
24/11:00pm 14.2 14.5 10.8 80 1.8 CALM 0 0 0 0 1010.8 1010.4 0.0
24/10:30pm 15.1 15.5 11.1 77 2.1 CALM 0 0 0 0 1010.7 1010.3 0.0
24/10:00pm 15.7 16.1 11.1 74 2.5 CALM 0 0 0 0 1010.7 1010.3 0.0
24/09:30pm 16.6 17.1 11.5 72 2.8 CALM 0 0 0 0 1010.6 1010.2 0.0
24/09:00pm 17.5 18.2 12.2 71 2.9 CALM 0 0 0 0 1010.7 1010.3 0.0
24/08:30pm 18.1 18.6 11.7 66 3.5 CALM 0 0 0 0 1010.5 1010.1 0.0
24/08:00pm 18.6 19.0 11.2 62 4.1 CALM 0 2 0 1 1010.3 1009.9 0.0
24/07:30pm 19.4 18.9 10.9 58 4.6 SW 4 6 2 3 1010.1 1009.7 0.0
24/07:00pm 21.2 20.4 11.0 52 5.6 SW 6 6 3 3 1009.8 1009.4 0.0
24/06:30pm 22.1 21.6 10.9 49 6.2 WSW 4 6 2 3 1009.4 1008.9 0.0
24/06:00pm 23.3 23.1 10.4 44 7.1 W 2 4 1 2 1009.1 1008.6 0.0
24/05:30pm 25.3 24.7 10.4 39 8.3 W 4 6 2 3 1008.8 1008.3 0.0
24/05:00pm 26.9 25.5 9.7 34 9.6 W 7 11 4 6 1008.6 1008.1 0.0
24/04:30pm 27.7 26.4 10.0 33 9.9 SW 7 13 4 7 1008.3 1007.8 0.0
24/04:00pm 27.9 26.0 9.2 31 10.4 WSW 9 13 5 7 1008.0 1007.5 0.0

Other Formats:

Comma delimited format used in spreadsheet applications
http://www.bom.gov.au/fwo/IDQ60801/IDQ60801.95543.axf

JavaScript Object Notation format (JSON) in row-major order
http://www.bom.gov.au/fwo/IDQ60801/IDQ60801.95543.json